createdAt,value
2019-03-05T00:01:02.750Z,54.63
2019-03-05T00:03:32.480Z,57.90
2019-03-05T00:06:02.101Z,63.85
2019-03-05T00:08:31.834Z,60.33
2019-03-05T00:11:01.557Z,58.10
2019-03-05T00:13:31.294Z,54.08
2019-03-05T00:16:00.920Z,57.62
2019-03-05T00:18:30.703Z,58.33
2019-03-05T00:21:00.289Z,65.35
2019-03-05T00:23:47.509Z,61.43
2019-03-05T00:26:29.302Z,57.03
2019-03-05T00:29:07.924Z,59.10
2019-03-05T00:31:45.739Z,64.90
2019-03-05T00:34:27.433Z,60.17
2019-03-05T00:37:09.339Z,62.70
2019-03-05T00:39:44.786Z,59.85
2019-03-05T00:42:49.548Z,60.33
2019-03-05T00:45:41.946Z,58.63
2019-03-05T00:48:39.073Z,55.33
2019-03-05T00:51:25.060Z,59.95
2019-03-05T00:54:13.403Z,55.40
2019-03-05T00:56:46.315Z,54.80
2019-03-05T00:59:37.620Z,63.95
2019-03-05T01:02:28.352Z,58.50
2019-03-05T01:05:06.945Z,54.10
2019-03-05T01:07:36.682Z,53.02
2019-03-05T01:10:07.600Z,57.08
2019-03-05T01:12:37.268Z,55.67
2019-03-05T01:15:08.679Z,55.70
2019-03-05T01:17:39.994Z,56.02
2019-03-05T01:20:12.189Z,55.75
2019-03-05T01:22:41.909Z,58.28
2019-03-05T01:25:29.688Z,54.67
2019-03-05T01:27:59.374Z,58.25
2019-03-05T01:30:54.262Z,52.83
2019-03-05T01:33:25.515Z,47.98
2019-03-05T01:35:59.478Z,61.80
2019-03-05T01:38:30.910Z,53.42
2019-03-05T01:41:02.186Z,50.43
2019-03-05T01:43:31.911Z,57.03
2019-03-05T01:46:01.535Z,57.23
2019-03-05T01:48:31.277Z,56.77
2019-03-05T01:51:01.102Z,52.60
2019-03-05T01:53:30.828Z,49.13
2019-03-05T01:56:00.463Z,56.42
2019-03-05T01:58:30.190Z,56.60
2019-03-05T02:00:59.914Z,54.05
2019-03-05T02:03:29.644Z,55.95
2019-03-05T02:05:59.273Z,46.77
2019-03-05T02:08:28.899Z,52.50
2019-03-05T02:10:58.639Z,53.87
2019-03-05T02:13:28.391Z,54.03
2019-03-05T02:15:58.098Z,45.88
2019-03-05T02:18:27.917Z,49.83
2019-03-05T02:20:57.761Z,58.63
2019-03-05T02:23:43.956Z,49.25
2019-03-05T02:26:25.750Z,56.85
2019-03-05T02:29:10.719Z,55.80
2019-03-05T02:31:53.331Z,48.75
2019-03-05T02:34:29.110Z,53.05
2019-03-05T02:37:04.973Z,48.45
2019-03-05T02:39:43.700Z,46.00
2019-03-05T02:42:25.600Z,44.90
2019-03-05T02:45:31.899Z,50.98
2019-03-05T02:48:07.600Z,50.50
2019-03-05T02:50:55.396Z,49.83
2019-03-05T02:53:34.272Z,51.20
2019-03-05T02:56:16.218Z,47.27
2019-03-05T02:58:44.998Z,51.80
2019-03-05T03:01:22.274Z,47.58
2019-03-05T03:03:53.550Z,43.17
2019-03-05T03:06:24.705Z,47.80
2019-03-05T03:09:03.489Z,42.33
2019-03-05T03:11:34.696Z,48.73
2019-03-05T03:14:04.333Z,49.63
2019-03-05T03:16:34.071Z,49.30
2019-03-05T03:19:03.794Z,47.00
2019-03-05T03:21:33.590Z,50.40
2019-03-05T03:24:03.248Z,46.08
2019-03-05T03:26:32.874Z,53.08
2019-03-05T03:29:02.509Z,44.23
2019-03-05T03:31:32.246Z,46.37
2019-03-05T03:34:01.861Z,48.30
2019-03-05T03:36:32.506Z,53.15
2019-03-05T03:39:02.238Z,52.83
2019-03-05T03:41:33.440Z,52.93
2019-03-05T03:44:04.582Z,47.25
2019-03-05T03:46:34.294Z,46.98
2019-03-05T03:49:04.018Z,48.08
2019-03-05T03:51:33.758Z,57.60
2019-03-05T03:54:03.392Z,55.00
2019-03-05T03:56:33.031Z,52.58
2019-03-05T03:59:02.762Z,48.83
2019-03-05T04:01:32.510Z,50.83
2019-03-05T04:04:02.059Z,48.87
2019-03-05T04:06:31.834Z,39.27
2019-03-05T04:09:01.489Z,42.55
2019-03-05T04:11:32.724Z,45.03
2019-03-05T04:14:02.571Z,46.40
2019-03-05T04:16:32.284Z,35.48
2019-03-05T04:19:03.656Z,42.10
2019-03-05T04:21:33.187Z,38.65
2019-03-05T04:24:02.910Z,36.33
2019-03-05T04:26:32.747Z,41.15
2019-03-05T04:29:02.489Z,38.85
2019-03-05T04:31:33.438Z,31.73
2019-03-05T04:34:03.269Z,38.08
2019-03-05T04:36:33.098Z,35.52
2019-03-05T04:39:02.823Z,43.20
2019-03-05T04:41:34.093Z,39.10
2019-03-05T04:44:04.934Z,38.28
2019-03-05T04:46:35.294Z,33.23
2019-03-05T04:49:13.717Z,40.52
2019-03-05T04:51:45.076Z,34.58
2019-03-05T04:54:14.804Z,32.20
2019-03-05T04:56:44.637Z,34.43
2019-03-05T04:59:14.366Z,33.65
2019-03-05T05:01:43.990Z,35.60
2019-03-05T05:04:13.625Z,28.93
2019-03-05T05:06:43.246Z,29.10
2019-03-05T05:09:13.086Z,26.33
2019-03-05T05:11:42.834Z,29.57
2019-03-05T05:14:14.084Z,31.30
2019-03-05T05:16:43.708Z,27.25
2019-03-05T05:19:13.747Z,28.93
2019-03-05T05:21:43.507Z,27.73
2019-03-05T05:24:13.352Z,27.93
2019-03-05T05:26:43.342Z,27.35
2019-03-05T05:29:13.072Z,25.80
2019-03-05T05:31:42.810Z,26.37
2019-03-05T05:34:12.737Z,28.25
2019-03-05T05:36:42.478Z,19.85
2019-03-05T05:39:48.566Z,20.80
2019-03-05T05:42:18.339Z,24.10
2019-03-05T05:44:48.068Z,24.10
2019-03-05T05:47:17.591Z,24.43
2019-03-05T05:49:47.219Z,24.00
2019-03-05T05:52:16.961Z,28.25
2019-03-05T05:54:51.432Z,23.30
2019-03-05T05:57:26.298Z,28.17
2019-03-05T06:00:03.870Z,21.40
2019-03-05T06:02:36.845Z,31.90
2019-03-05T06:05:08.634Z,28.92
2019-03-05T06:07:39.482Z,20.92
2019-03-05T06:10:15.703Z,20.35
2019-03-05T06:12:45.472Z,22.25
2019-03-05T06:15:18.231Z,21.65
2019-03-05T06:17:50.979Z,17.87
2019-03-05T06:20:21.448Z,22.35
2019-03-05T06:22:54.247Z,20.62
2019-03-05T06:25:28.794Z,22.77
2019-03-05T06:27:58.995Z,16.20
2019-03-05T06:30:36.010Z,26.90
2019-03-05T06:33:09.736Z,20.37
2019-03-05T06:35:41.407Z,23.65
2019-03-05T06:38:12.227Z,19.30
2019-03-05T06:40:42.006Z,19.23
2019-03-05T06:43:11.612Z,25.02
2019-03-05T06:45:42.643Z,17.85
2019-03-05T06:48:12.481Z,21.17
2019-03-05T06:50:42.105Z,21.40
2019-03-05T06:53:12.246Z,32.37
2019-03-05T06:55:41.975Z,21.82
2019-03-05T06:58:12.052Z,24.35
2019-03-05T07:00:42.359Z,16.30
2019-03-05T07:03:12.086Z,21.42
2019-03-05T07:06:18.708Z,20.50
2019-03-05T07:09:00.232Z,24.67
2019-03-05T07:11:58.912Z,23.62
2019-03-05T07:14:57.787Z,22.48
2019-03-05T07:17:33.270Z,16.60
2019-03-05T07:20:10.234Z,18.42
2019-03-05T07:22:53.152Z,18.92
2019-03-05T07:25:22.884Z,19.02
2019-03-05T07:27:52.613Z,24.90
2019-03-05T07:30:22.147Z,18.37
2019-03-05T07:32:51.875Z,18.02
2019-03-05T07:35:22.315Z,18.07
2019-03-05T07:37:52.046Z,18.77
2019-03-05T07:40:21.680Z,23.10
2019-03-05T07:42:51.414Z,19.93
2019-03-05T07:45:21.134Z,18.87
2019-03-05T07:47:51.889Z,19.10
2019-03-05T07:50:21.516Z,25.35
2019-03-05T07:52:51.043Z,23.43
2019-03-05T07:55:20.772Z,18.52
2019-03-05T07:57:51.533Z,20.63
2019-03-05T08:00:21.164Z,24.77
2019-03-05T08:02:50.880Z,24.03
2019-03-05T08:05:20.725Z,26.30
2019-03-05T08:07:50.450Z,23.63
2019-03-05T08:10:26.061Z,22.45
2019-03-05T08:13:05.569Z,21.40
2019-03-05T08:16:08.119Z,25.97
2019-03-05T08:18:39.385Z,28.55
2019-03-05T08:21:09.309Z,29.17
2019-03-05T08:23:38.789Z,22.77
2019-03-05T08:26:08.340Z,25.30
2019-03-05T08:28:38.180Z,16.77
2019-03-05T08:31:07.822Z,24.35
2019-03-05T08:33:37.533Z,23.07
2019-03-05T08:36:10.044Z,22.43
2019-03-05T08:38:39.774Z,18.67
2019-03-05T08:41:09.264Z,19.83
2019-03-05T08:43:39.339Z,24.03
2019-03-05T08:46:09.067Z,19.57
2019-03-05T08:48:38.904Z,21.77
2019-03-05T08:51:10.165Z,21.65
2019-03-05T08:53:49.236Z,23.92
2019-03-05T08:56:11.364Z,20.52
2019-03-05T08:58:41.092Z,21.40
2019-03-05T09:01:10.819Z,24.37
2019-03-05T09:03:40.559Z,24.30
2019-03-05T09:06:10.389Z,19.00
2019-03-05T09:08:40.013Z,19.12
2019-03-05T09:11:09.846Z,21.68
2019-03-05T09:13:39.677Z,23.35
2019-03-05T09:16:09.515Z,22.77
2019-03-05T09:18:39.157Z,20.85
2019-03-05T09:21:08.801Z,24.00
2019-03-05T09:26:08.642Z,20.35
2019-03-05T09:28:38.374Z,23.13
2019-03-05T09:31:08.103Z,19.90
2019-03-05T09:33:37.832Z,19.07
2019-03-05T09:36:07.582Z,23.33
2019-03-05T09:38:38.413Z,21.50
2019-03-05T09:41:08.061Z,19.63
2019-03-05T09:43:37.619Z,20.30
2019-03-05T09:46:07.500Z,21.25
2019-03-05T09:48:37.137Z,24.57
2019-03-05T09:51:06.873Z,20.75
2019-03-05T09:53:36.687Z,20.82
2019-03-05T09:56:06.422Z,22.13
2019-03-05T09:58:37.179Z,20.35
2019-03-05T10:01:07.109Z,21.75
2019-03-05T10:03:36.738Z,21.25
2019-03-05T10:06:06.463Z,19.23
2019-03-05T10:08:36.097Z,29.50
2019-03-05T10:11:05.828Z,20.87
2019-03-05T10:13:35.599Z,17.03
2019-03-05T10:16:05.289Z,21.60
2019-03-05T10:18:35.124Z,20.40
2019-03-05T10:21:05.570Z,21.05
2019-03-05T10:23:36.016Z,19.55
2019-03-05T10:26:05.594Z,19.77
2019-03-05T10:28:35.370Z,17.20
2019-03-05T10:31:05.109Z,21.55
2019-03-05T10:33:35.236Z,22.37
2019-03-05T10:36:05.379Z,23.15
2019-03-05T10:38:35.109Z,22.27
2019-03-05T10:41:04.848Z,23.77
2019-03-05T10:43:34.568Z,21.15
2019-03-05T10:46:04.257Z,18.50
2019-03-05T10:48:34.032Z,28.30
2019-03-05T10:51:04.480Z,20.30
2019-03-05T10:53:34.105Z,18.62
2019-03-05T10:56:03.878Z,24.45
2019-03-05T10:58:34.541Z,20.82
2019-03-05T11:01:06.670Z,23.45
2019-03-05T11:03:36.400Z,19.35
2019-03-05T11:06:06.637Z,19.27
2019-03-05T11:08:36.262Z,18.82
2019-03-05T11:11:13.637Z,20.65
2019-03-05T11:13:37.362Z,22.37
2019-03-05T11:16:07.098Z,20.15
2019-03-05T11:18:36.823Z,15.93
2019-03-05T11:21:06.867Z,20.52
2019-03-05T11:23:36.589Z,19.77
2019-03-05T11:26:06.226Z,19.77
2019-03-05T11:28:35.946Z,26.60
2019-03-05T11:31:07.219Z,23.93
2019-03-05T11:33:36.840Z,25.20
2019-03-05T11:36:06.678Z,24.37
2019-03-05T11:38:36.514Z,23.85
2019-03-05T11:41:06.350Z,24.60
2019-03-05T11:43:37.135Z,19.82
2019-03-05T11:46:10.735Z,20.55
2019-03-05T11:48:40.646Z,21.25
2019-03-05T11:51:10.393Z,17.48
2019-03-05T11:53:40.006Z,16.25
2019-03-05T11:56:12.616Z,18.27
2019-03-05T11:58:44.470Z,24.90
2019-03-05T12:01:20.395Z,18.82
2019-03-05T12:03:54.229Z,20.05
2019-03-05T12:06:26.010Z,20.60
2019-03-05T12:08:55.673Z,16.55
2019-03-05T12:11:25.511Z,19.60
2019-03-05T12:13:55.134Z,21.05
2019-03-05T12:16:26.186Z,16.52
2019-03-05T12:18:55.974Z,15.07
2019-03-05T12:21:29.636Z,21.00
2019-03-05T12:24:00.036Z,16.60
2019-03-05T12:26:31.938Z,19.50
2019-03-05T12:29:05.383Z,21.45
2019-03-05T12:31:37.620Z,18.12
2019-03-05T12:34:09.818Z,22.87
2019-03-05T12:36:40.186Z,19.02
2019-03-05T12:39:10.939Z,25.55
2019-03-05T12:41:40.876Z,22.70
2019-03-05T12:44:10.510Z,22.17
2019-03-05T12:46:40.246Z,17.93
2019-03-05T12:49:10.181Z,16.87
2019-03-05T12:51:39.793Z,18.52
2019-03-05T12:54:11.521Z,21.35
2019-03-05T12:56:41.670Z,22.50
2019-03-05T13:01:44.201Z,20.08
2019-03-05T13:04:17.098Z,22.95
2019-03-05T13:06:47.202Z,24.07
2019-03-05T13:09:19.578Z,18.10
2019-03-05T13:11:52.630Z,24.47
2019-03-05T13:14:26.835Z,25.65
2019-03-05T13:16:57.789Z,17.27
2019-03-05T13:19:27.788Z,22.27
2019-03-05T13:21:58.129Z,22.57
2019-03-05T13:24:28.584Z,23.02
2019-03-05T13:26:59.338Z,22.40
2019-03-05T13:29:29.066Z,24.30
2019-03-05T13:32:00.443Z,23.47
2019-03-05T13:34:30.182Z,23.77
2019-03-05T13:37:00.880Z,22.52
2019-03-05T13:39:30.880Z,22.37
2019-03-05T13:42:00.594Z,21.23
2019-03-05T13:44:32.067Z,26.62
2019-03-05T13:47:04.675Z,26.55
2019-03-05T13:49:45.731Z,21.57
2019-03-05T13:52:27.845Z,25.23
2019-03-05T13:55:26.866Z,24.25
2019-03-05T13:58:02.372Z,27.30
2019-03-05T14:00:32.208Z,24.70
2019-03-05T14:03:07.670Z,27.02
2019-03-05T14:05:55.699Z,30.25
2019-03-05T14:08:40.350Z,23.85
2019-03-05T14:11:10.434Z,35.95
2019-03-05T14:13:40.169Z,30.68
2019-03-05T14:16:11.415Z,32.65
2019-03-05T14:18:41.127Z,29.40
2019-03-05T14:21:10.859Z,27.73
2019-03-05T14:23:40.585Z,29.80
2019-03-05T14:26:10.447Z,28.30
2019-03-05T14:28:40.157Z,30.82
2019-03-05T14:31:10.107Z,31.93
2019-03-05T14:33:39.734Z,29.82
2019-03-05T14:36:09.491Z,33.37
2019-03-05T14:38:39.332Z,34.33
2019-03-05T14:41:09.132Z,34.50
2019-03-05T14:43:38.861Z,33.43
2019-03-05T14:46:08.563Z,34.67
2019-03-05T14:48:38.318Z,34.33
2019-03-05T14:51:09.451Z,33.60
2019-03-05T14:53:39.234Z,35.70
2019-03-05T14:56:09.167Z,35.43
2019-03-05T14:58:40.526Z,35.00
2019-03-05T15:01:10.329Z,37.95
2019-03-05T15:03:39.873Z,36.17
2019-03-05T15:06:11.305Z,36.88
2019-03-05T15:08:41.785Z,40.98
2019-03-05T15:11:11.764Z,37.33
2019-03-05T15:13:42.712Z,45.58
2019-03-05T15:16:13.904Z,40.43
2019-03-05T15:18:44.842Z,38.78
2019-03-05T15:21:14.639Z,39.95
2019-03-05T15:23:44.236Z,38.33
2019-03-05T15:26:13.986Z,40.20
2019-03-05T15:28:55.481Z,42.33
2019-03-05T15:31:15.078Z,35.38
2019-03-05T15:33:44.821Z,41.45
2019-03-05T15:36:23.704Z,37.87
2019-03-05T15:38:47.041Z,34.98
2019-03-05T15:41:17.910Z,35.98
2019-03-05T15:43:47.597Z,42.40
2019-03-05T15:46:17.257Z,34.23
2019-03-05T15:48:47.217Z,36.60
2019-03-05T15:51:17.127Z,39.15
2019-03-05T15:56:16.763Z,45.25
2019-03-05T15:58:46.606Z,33.60
2019-03-05T16:01:22.154Z,40.40
2019-03-05T16:03:47.606Z,37.45
2019-03-05T16:06:17.319Z,35.87
2019-03-05T16:08:47.465Z,44.30
2019-03-05T16:11:17.288Z,41.30
2019-03-05T16:13:47.018Z,41.68
2019-03-05T16:16:18.429Z,43.50
2019-03-05T16:18:49.155Z,40.15
2019-03-05T16:21:23.803Z,43.20
2019-03-05T16:23:53.408Z,45.65
2019-03-05T16:26:24.672Z,41.53
2019-03-05T16:28:54.619Z,44.08
2019-03-05T16:31:26.297Z,44.65
2019-03-05T16:33:58.777Z,37.10
2019-03-05T16:36:42.207Z,38.63
2019-03-05T16:39:19.506Z,36.58
2019-03-05T16:41:57.414Z,32.33
2019-03-05T16:44:45.974Z,37.60
2019-03-05T16:47:23.678Z,33.38
2019-03-05T16:50:00.877Z,30.45
2019-03-05T16:52:32.137Z,31.60
2019-03-05T16:55:03.501Z,36.48
2019-03-05T16:57:48.153Z,29.72
2019-03-05T17:00:36.103Z,24.43
2019-03-05T17:03:14.253Z,26.97
2019-03-05T17:05:45.690Z,28.95
2019-03-05T17:08:26.049Z,27.98
2019-03-05T17:10:59.724Z,24.90
2019-03-05T17:13:32.186Z,25.55
2019-03-05T17:16:01.990Z,29.15
2019-03-05T17:18:31.616Z,28.67
2019-03-05T17:21:02.045Z,28.65
2019-03-05T17:23:33.749Z,33.05
2019-03-05T17:26:04.896Z,37.88
2019-03-05T17:28:34.838Z,39.40
2019-03-05T17:31:04.671Z,34.63
2019-03-05T17:36:05.932Z,28.45
2019-03-05T17:38:36.426Z,30.65
2019-03-05T17:41:06.257Z,18.65
2019-03-05T17:43:36.085Z,25.32
2019-03-05T17:46:05.818Z,21.97
2019-03-05T17:48:36.930Z,18.12
2019-03-05T17:51:06.912Z,17.27
2019-03-05T17:53:36.947Z,16.37
2019-03-05T17:56:06.677Z,18.40
2019-03-05T17:58:36.534Z,20.87
2019-03-05T18:01:07.861Z,19.50
2019-03-05T18:03:37.781Z,17.17
2019-03-05T18:06:07.540Z,17.62
2019-03-05T18:08:37.276Z,18.98
2019-03-05T18:11:07.001Z,23.87
2019-03-05T18:13:38.070Z,20.10
2019-03-05T18:16:07.994Z,19.32
2019-03-05T18:18:37.733Z,17.15
2019-03-05T18:21:07.348Z,14.23
2019-03-05T18:23:37.371Z,16.65
2019-03-05T18:26:07.222Z,11.70
2019-03-05T18:28:38.636Z,12.33
2019-03-05T18:31:08.538Z,12.73
2019-03-05T18:33:38.369Z,12.35
2019-03-05T18:36:08.395Z,15.60
2019-03-05T18:38:38.545Z,17.02
2019-03-05T18:41:08.200Z,19.50
2019-03-05T18:43:37.872Z,16.70
2019-03-05T18:46:07.787Z,16.13
2019-03-05T18:48:39.090Z,15.55
2019-03-05T18:51:08.830Z,17.67
2019-03-05T18:53:38.819Z,16.05
2019-03-05T18:56:09.901Z,15.28
2019-03-05T18:58:39.557Z,17.42
2019-03-05T19:01:10.397Z,20.57
2019-03-05T19:03:40.126Z,27.45
2019-03-05T19:06:09.795Z,31.35
2019-03-05T19:08:40.517Z,31.33
2019-03-05T19:11:10.245Z,26.52
2019-03-05T19:13:39.965Z,27.37
2019-03-05T19:16:09.800Z,22.30
2019-03-05T19:18:39.439Z,22.87
2019-03-05T19:21:09.367Z,22.37
2019-03-05T19:23:39.626Z,25.10
2019-03-05T19:26:09.751Z,21.90
2019-03-05T19:28:40.681Z,21.48
2019-03-05T19:31:10.697Z,23.47
2019-03-05T19:33:43.664Z,25.10
2019-03-05T19:36:12.872Z,22.37
2019-03-05T19:38:42.588Z,25.17
2019-03-05T19:41:13.340Z,22.50
2019-03-05T19:43:43.079Z,22.77
2019-03-05T19:46:13.106Z,23.20
2019-03-05T19:48:44.269Z,21.87
2019-03-05T19:51:13.907Z,22.13
2019-03-05T19:53:45.312Z,18.30
2019-03-05T19:56:16.638Z,17.98
2019-03-05T19:58:46.514Z,16.97
2019-03-05T20:01:18.140Z,17.67
2019-03-05T20:03:48.083Z,19.55
2019-03-05T20:06:17.601Z,20.43
2019-03-05T20:08:47.437Z,22.03
2019-03-05T20:11:17.260Z,20.95
2019-03-05T20:13:48.221Z,18.17
2019-03-05T20:16:17.974Z,19.87
2019-03-05T20:18:50.388Z,25.88
2019-03-05T20:21:20.522Z,22.27
2019-03-05T20:26:23.040Z,29.90
2019-03-05T20:29:01.939Z,23.98
2019-03-05T20:31:32.499Z,24.67
2019-03-05T20:34:04.267Z,19.62
2019-03-05T20:36:36.009Z,20.25
2019-03-05T20:39:07.663Z,19.80
2019-03-05T20:41:40.372Z,24.98
2019-03-05T20:44:10.254Z,22.30
2019-03-05T20:46:40.384Z,24.85
2019-03-05T20:49:11.654Z,35.88
2019-03-05T20:54:15.667Z,19.40
2019-03-05T20:56:48.656Z,29.42
2019-03-05T20:59:20.472Z,31.70
2019-03-05T21:01:53.846Z,27.95
2019-03-05T21:04:28.911Z,19.07
2019-03-05T21:06:58.906Z,26.57
2019-03-05T21:09:29.795Z,18.15
2019-03-05T21:12:00.390Z,24.05
2019-03-05T21:14:30.108Z,22.23
2019-03-05T21:16:59.863Z,18.73
2019-03-05T21:19:29.489Z,20.65
2019-03-05T21:21:59.270Z,20.93
2019-03-05T21:24:29.054Z,21.75
2019-03-05T21:26:58.773Z,22.75
2019-03-05T21:29:28.401Z,21.68
2019-03-05T21:31:59.055Z,26.07
2019-03-05T21:34:28.793Z,26.00
2019-03-05T21:36:58.511Z,28.35
2019-03-05T21:39:28.254Z,28.07
2019-03-05T21:41:57.874Z,25.82
2019-03-05T21:44:27.699Z,29.83
2019-03-05T21:46:58.453Z,26.97
2019-03-05T21:49:28.185Z,26.40
2019-03-05T21:51:57.807Z,23.77
2019-03-05T21:54:27.450Z,27.37
2019-03-05T21:56:57.171Z,24.97
2019-03-05T21:59:27.923Z,21.73
2019-03-05T22:01:57.763Z,20.70
2019-03-05T22:04:27.598Z,17.97
2019-03-05T22:06:58.757Z,19.27
2019-03-05T22:09:28.582Z,25.70
2019-03-05T22:11:58.425Z,21.10
2019-03-05T22:14:28.246Z,18.07
2019-03-05T22:16:57.988Z,19.27
2019-03-05T22:19:27.759Z,21.12
2019-03-05T22:21:57.335Z,23.13
2019-03-05T22:24:27.066Z,27.50
2019-03-05T22:26:56.908Z,22.65
2019-03-05T22:29:26.420Z,24.90
2019-03-05T22:31:55.939Z,24.23
2019-03-05T22:34:25.487Z,22.65
2019-03-05T22:36:55.124Z,23.12
2019-03-05T22:39:24.730Z,21.73
2019-03-05T22:41:54.357Z,20.63
2019-03-05T22:44:24.192Z,23.55
2019-03-05T22:46:53.825Z,25.63
2019-03-05T22:49:23.347Z,22.83
2019-03-05T22:51:52.976Z,23.30
2019-03-05T22:54:22.807Z,21.85
2019-03-05T22:56:55.263Z,23.85
2019-03-05T22:59:24.923Z,23.80
2019-03-05T23:01:54.358Z,25.08
2019-03-05T23:04:29.392Z,20.53
2019-03-05T23:06:59.331Z,29.12
2019-03-05T23:09:29.484Z,30.62
2019-03-05T23:12:00.738Z,34.60
2019-03-05T23:14:30.669Z,35.73
2019-03-05T23:17:00.201Z,35.23
2019-03-05T23:19:29.828Z,39.30
2019-03-05T23:21:59.553Z,42.47
2019-03-05T23:24:29.284Z,44.10
2019-03-05T23:26:59.958Z,47.30
2019-03-05T23:29:31.299Z,46.65
2019-03-05T23:32:01.030Z,52.23
2019-03-05T23:34:31.528Z,49.05
2019-03-05T23:39:31.344Z,53.65
2019-03-05T23:42:00.985Z,50.85
2019-03-05T23:44:30.709Z,66.77
2019-03-05T23:47:00.541Z,74.67
2019-03-05T23:49:30.371Z,73.60
2019-03-05T23:51:59.904Z,73.05
2019-03-05T23:54:29.626Z,66.37
2019-03-05T23:56:59.352Z,51.08
2019-03-05T23:59:28.980Z,55.83
